createdAt,value
2022-10-19T00:04:46.547Z,1025.43
2022-10-19T00:09:53.778Z,1025.38
2022-10-19T00:15:00.988Z,1025.35
2022-10-19T00:20:08.286Z,1025.31
2022-10-19T00:25:15.436Z,1025.32
2022-10-19T00:30:22.635Z,1025.31
2022-10-19T00:35:29.886Z,1025.35
2022-10-19T00:40:37.079Z,1025.39
2022-10-19T00:45:44.346Z,1025.37
2022-10-19T00:50:51.596Z,1025.33
2022-10-19T00:55:58.763Z,1025.31
2022-10-19T01:01:06.022Z,1025.31
2022-10-19T01:06:13.178Z,1025.29
2022-10-19T01:11:20.369Z,1025.30
2022-10-19T01:16:27.642Z,1025.25
2022-10-19T01:21:34.867Z,1025.18
2022-10-19T01:26:42.077Z,1025.22
2022-10-19T01:31:49.285Z,1025.16
2022-10-19T01:36:56.551Z,1025.08
2022-10-19T01:42:03.693Z,1024.95
2022-10-19T01:47:11.804Z,1024.98
2022-10-19T01:52:19.062Z,1024.87
2022-10-19T01:57:26.229Z,1024.86
2022-10-19T02:02:33.694Z,1024.89
2022-10-19T02:07:40.768Z,1024.78
2022-10-19T02:12:48.821Z,1024.77
2022-10-19T02:17:56.067Z,1024.73
2022-10-19T02:23:03.312Z,1024.71
2022-10-19T02:28:10.486Z,1024.71
2022-10-19T02:33:17.747Z,1024.68
2022-10-19T02:38:24.966Z,1024.65
2022-10-19T02:43:32.099Z,1024.68
2022-10-19T02:48:40.258Z,1024.71
2022-10-19T02:53:47.502Z,1024.67
2022-10-19T02:58:54.719Z,1024.55
2022-10-19T03:04:01.956Z,1024.46
2022-10-19T03:09:09.552Z,1024.48
2022-10-19T03:14:16.774Z,1024.34
2022-10-19T03:19:23.984Z,1024.29
2022-10-19T03:24:31.229Z,1024.32
2022-10-19T03:29:38.448Z,1024.38
2022-10-19T03:34:45.717Z,1024.41
2022-10-19T03:39:53.026Z,1024.42
2022-10-19T03:45:00.233Z,1024.45
2022-10-19T03:50:07.542Z,1024.50
2022-10-19T03:55:16.895Z,1024.49
2022-10-19T04:00:24.073Z,1024.36
2022-10-19T04:05:35.898Z,1024.35
2022-10-19T04:10:43.148Z,1024.41
2022-10-19T04:15:50.329Z,1024.51
2022-10-19T04:20:57.585Z,1024.45
2022-10-19T04:26:04.796Z,1024.52
2022-10-19T04:31:11.987Z,1024.55
2022-10-19T04:36:19.136Z,1024.55
2022-10-19T04:41:26.422Z,1024.46
2022-10-19T04:46:33.612Z,1024.43
2022-10-19T04:51:40.818Z,1024.42
2022-10-19T04:56:48.005Z,1024.37
2022-10-19T05:01:55.132Z,1024.35
2022-10-19T05:07:02.323Z,1024.39
2022-10-19T05:12:09.518Z,1024.38
2022-10-19T05:17:16.846Z,1024.31
2022-10-19T05:22:24.035Z,1024.30
2022-10-19T05:27:31.446Z,1024.25
2022-10-19T05:32:38.404Z,1024.14
2022-10-19T05:37:45.649Z,1024.13
2022-10-19T05:42:52.903Z,1024.01
2022-10-19T05:48:00.055Z,1023.98
2022-10-19T05:53:07.254Z,1023.93
2022-10-19T05:58:14.568Z,1023.96
2022-10-19T06:03:21.675Z,1024.02
2022-10-19T06:08:28.928Z,1024.03
2022-10-19T06:13:36.112Z,1024.03
2022-10-19T06:18:43.350Z,1024.02
2022-10-19T06:23:50.572Z,1024.05
2022-10-19T06:28:57.787Z,1024.02
2022-10-19T06:34:05.161Z,1024.04
2022-10-19T06:39:12.238Z,1024.06
2022-10-19T06:44:19.681Z,1024.12
2022-10-19T06:49:26.874Z,1024.15
2022-10-19T06:54:34.110Z,1024.16
2022-10-19T06:59:41.349Z,1024.19
2022-10-19T07:04:48.631Z,1024.26
2022-10-19T07:09:55.887Z,1024.34
2022-10-19T07:15:03.145Z,1024.39
2022-10-19T07:20:10.327Z,1024.44
2022-10-19T07:25:17.525Z,1024.44
2022-10-19T07:30:24.819Z,1024.35
2022-10-19T07:35:32.001Z,1024.38
2022-10-19T07:40:42.415Z,1024.31
2022-10-19T07:45:46.403Z,1024.36
2022-10-19T07:50:53.585Z,1024.33
2022-10-19T07:56:00.820Z,1024.31
2022-10-19T08:01:08.035Z,1024.30
2022-10-19T08:06:15.317Z,1024.25
2022-10-19T08:11:22.514Z,1024.24
2022-10-19T08:16:29.775Z,1024.23
2022-10-19T08:21:36.992Z,1024.24
2022-10-19T08:26:44.221Z,1024.31
2022-10-19T08:31:51.476Z,1024.22
2022-10-19T08:36:58.693Z,1024.14
2022-10-19T08:42:05.841Z,1024.11
2022-10-19T08:47:14.065Z,1024.06
2022-10-19T08:52:20.165Z,1023.96
2022-10-19T08:57:27.335Z,1023.97
2022-10-19T09:02:34.887Z,1023.91
2022-10-19T09:07:41.664Z,1023.84
2022-10-19T09:12:48.918Z,1023.83
2022-10-19T09:17:56.151Z,1023.76
2022-10-19T09:23:03.375Z,1023.76
2022-10-19T09:28:10.593Z,1023.76
2022-10-19T09:33:17.785Z,1023.73
2022-10-19T09:38:24.992Z,1023.70
2022-10-19T09:43:32.199Z,1023.68
2022-10-19T09:48:39.428Z,1023.61
2022-10-19T09:53:46.606Z,1023.59
2022-10-19T09:58:53.814Z,1023.60
2022-10-19T10:04:01.169Z,1023.55
2022-10-19T10:09:08.305Z,1023.46
2022-10-19T10:14:15.464Z,1023.41
2022-10-19T10:19:26.533Z,1023.35
2022-10-19T10:24:29.881Z,1023.35
2022-10-19T10:29:37.037Z,1023.26
2022-10-19T10:34:54.908Z,1023.14
2022-10-19T10:39:51.447Z,1023.11
2022-10-19T10:44:58.602Z,1023.08
2022-10-19T10:50:05.810Z,1022.98
2022-10-19T10:55:14.613Z,1022.94
2022-10-19T11:00:21.935Z,1022.89
2022-10-19T11:05:29.142Z,1022.79
2022-10-19T11:10:36.289Z,1022.70
2022-10-19T11:15:43.526Z,1022.69
2022-10-19T11:20:50.755Z,1022.63
2022-10-19T11:25:57.954Z,1022.52
2022-10-19T11:31:05.134Z,1022.45
2022-10-19T11:36:12.455Z,1022.33
2022-10-19T11:41:22.027Z,1022.26
2022-10-19T11:46:29.254Z,1022.16
2022-10-19T11:51:36.547Z,1022.12
2022-10-19T11:57:02.453Z,1022.04
2022-10-19T12:01:50.996Z,1021.95
2022-10-19T12:06:58.149Z,1021.85
2022-10-19T12:12:05.299Z,1021.73
2022-10-19T12:22:21.496Z,1021.61
2022-10-19T12:27:28.692Z,1021.56
2022-10-19T12:32:35.853Z,1021.45
2022-10-19T12:37:43.112Z,1021.36
2022-10-19T12:42:50.263Z,1021.28
2022-10-19T12:47:57.484Z,1021.21
2022-10-19T12:53:04.742Z,1021.28
2022-10-19T12:58:11.909Z,1021.22
2022-10-19T13:03:19.166Z,1021.17
2022-10-19T13:08:26.510Z,1021.12
2022-10-19T13:13:33.630Z,1021.08
2022-10-19T13:18:40.844Z,1020.99
2022-10-19T13:23:48.053Z,1020.96
2022-10-19T13:28:55.285Z,1020.90
2022-10-19T13:34:02.477Z,1020.84
2022-10-19T13:39:09.688Z,1020.78
2022-10-19T13:44:17.478Z,1020.77
2022-10-19T13:49:27.777Z,1020.78
2022-10-19T13:54:32.238Z,1020.75
2022-10-19T13:59:39.404Z,1020.57
2022-10-19T14:04:46.662Z,1020.64
2022-10-19T14:09:53.854Z,1020.60
2022-10-19T14:15:01.343Z,1020.57
2022-10-19T14:20:08.631Z,1020.44
2022-10-19T14:25:15.874Z,1020.39
2022-10-19T14:30:23.047Z,1020.25
2022-10-19T14:35:31.263Z,1020.26
2022-10-19T14:40:38.520Z,1020.27
2022-10-19T14:45:45.681Z,1020.20
2022-10-19T14:50:53.801Z,1020.13
2022-10-19T14:56:01.035Z,1020.09
2022-10-19T15:01:08.369Z,1020.15
2022-10-19T15:06:15.648Z,1020.10
2022-10-19T15:11:22.856Z,1019.99
2022-10-19T15:16:30.053Z,1020.03
2022-10-19T15:21:37.224Z,1019.95
2022-10-19T15:26:44.483Z,1019.92
2022-10-19T15:31:51.665Z,1020.00
2022-10-19T15:36:58.882Z,1019.99
2022-10-19T15:42:06.103Z,1020.02
2022-10-19T15:47:13.282Z,1020.01
2022-10-19T15:52:20.493Z,1020.03
2022-10-19T15:57:27.789Z,1020.06
2022-10-19T16:02:35.275Z,1020.07
2022-10-19T16:07:42.994Z,1019.98
2022-10-19T16:12:50.362Z,1019.97
2022-10-19T16:17:57.555Z,1019.97
2022-10-19T16:23:05.178Z,1019.93
2022-10-19T16:28:12.619Z,1019.84
2022-10-19T16:33:20.146Z,1019.90
2022-10-19T16:38:27.756Z,1019.90
2022-10-19T16:43:35.154Z,1019.93
2022-10-19T16:48:42.578Z,1019.97
2022-10-19T16:53:49.884Z,1020.06
2022-10-19T16:58:57.420Z,1020.05
2022-10-19T17:04:04.729Z,1020.06
2022-10-19T17:14:19.339Z,1020.07
2022-10-19T17:19:26.936Z,1020.13
2022-10-19T17:24:34.548Z,1020.19
2022-10-19T17:29:42.183Z,1020.25
2022-10-19T17:34:49.450Z,1020.31
2022-10-19T17:39:56.982Z,1020.35
2022-10-19T17:45:04.315Z,1020.40
2022-10-19T17:50:11.795Z,1020.41
2022-10-19T17:55:19.340Z,1020.51
2022-10-19T18:00:26.740Z,1020.53
2022-10-19T18:05:34.416Z,1020.55
2022-10-19T18:10:41.947Z,1020.61
2022-10-19T18:15:49.337Z,1020.62
2022-10-19T18:20:57.373Z,1020.62
2022-10-19T18:26:04.798Z,1020.74
2022-10-19T18:31:12.532Z,1020.70
2022-10-19T18:36:20.128Z,1020.69
2022-10-19T18:41:27.840Z,1020.67
2022-10-19T18:46:35.474Z,1020.58
2022-10-19T18:51:42.870Z,1020.54
2022-10-19T18:56:50.395Z,1020.52
2022-10-19T19:01:58.041Z,1020.48
2022-10-19T19:07:05.604Z,1020.41
2022-10-19T19:12:13.217Z,1020.45
2022-10-19T19:17:20.955Z,1020.44
2022-10-19T19:22:28.648Z,1020.42
2022-10-19T19:27:36.367Z,1020.40
2022-10-19T19:32:44.017Z,1020.38
2022-10-19T19:37:51.709Z,1020.45
2022-10-19T19:42:59.311Z,1020.51
2022-10-19T19:48:06.951Z,1020.51
2022-10-19T19:53:14.294Z,1020.55
2022-10-19T19:58:21.849Z,1020.55
2022-10-19T20:03:29.589Z,1020.53
2022-10-19T20:08:37.367Z,1020.48
2022-10-19T20:13:45.003Z,1020.52
2022-10-19T20:18:52.661Z,1020.47
2022-10-19T20:24:00.164Z,1020.42
2022-10-19T20:29:07.748Z,1020.44
2022-10-19T20:34:15.090Z,1020.39
2022-10-19T20:39:22.239Z,1020.31
2022-10-19T20:44:29.415Z,1020.22
2022-10-19T20:49:36.617Z,1020.22
2022-10-19T20:54:43.788Z,1020.20
2022-10-19T20:59:51.074Z,1020.09
2022-10-19T21:04:58.321Z,1020.12
2022-10-19T21:10:05.534Z,1020.13
2022-10-19T21:15:12.793Z,1020.18
2022-10-19T21:20:20.019Z,1020.15
2022-10-19T21:25:29.007Z,1020.09
2022-10-19T21:30:36.220Z,1020.13
2022-10-19T21:35:43.543Z,1020.11
2022-10-19T21:40:50.713Z,1020.09
2022-10-19T21:45:57.957Z,1020.13
2022-10-19T21:51:05.223Z,1020.15
2022-10-19T21:56:12.401Z,1020.12
2022-10-19T22:01:19.761Z,1020.03
2022-10-19T22:06:26.922Z,1020.03
2022-10-19T22:11:34.089Z,1019.89
2022-10-19T22:16:41.367Z,1019.82
2022-10-19T22:21:48.597Z,1019.82
2022-10-19T22:26:55.829Z,1019.81
2022-10-19T22:32:03.032Z,1019.85
2022-10-19T22:37:10.300Z,1019.82
2022-10-19T22:42:17.436Z,1019.80
2022-10-19T22:47:24.642Z,1019.77
2022-10-19T22:52:31.883Z,1019.68
2022-10-19T22:57:39.042Z,1019.63
2022-10-19T23:02:46.263Z,1019.62
2022-10-19T23:07:53.548Z,1019.62
2022-10-19T23:13:00.747Z,1019.58
2022-10-19T23:18:07.968Z,1019.54
2022-10-19T23:23:15.259Z,1019.56
2022-10-19T23:28:22.413Z,1019.48
2022-10-19T23:33:29.607Z,1019.46
2022-10-19T23:38:36.802Z,1019.45
2022-10-19T23:43:43.983Z,1019.34
2022-10-19T23:48:51.189Z,1019.31
2022-10-19T23:53:58.407Z,1019.34
2022-10-19T23:59:05.590Z,1019.33
